Time;durP1;ratioP1;P1;durP2;ratioP2;P2;SDS_P1;SDS_P2;PMS_P1;PMS_P2;Temp;Humidity;BMP_temperature;BMP_pressure;BME280_temperature;BME280_humidity;BME280_pressure;Samples;Min_cycle;Max_cycle;Signal;HPM_P1;HPM_P2
2022/06/20 00:02:13;;;;;;;;;;;13.50;99.90;;;;;;5054071;28;20307;-75
2022/06/20 00:04:40;;;;;;;;;;;13.50;99.90;;;;;;5055282;28;19913;-74
2022/06/20 00:07:06;;;;;;;;;;;13.60;99.90;;;;;;5055339;28;19960;-75
2022/06/20 00:09:33;;;;;;;;;;;13.60;99.90;;;;;;5055124;28;20031;-75
2022/06/20 00:12:00;;;;;;;;;;;13.60;99.90;;;;;;5054990;28;19963;-74
2022/06/20 00:14:26;;;;;;;;;;;13.60;99.90;;;;;;5055041;28;19928;-76
2022/06/20 00:16:53;;;;;;;;;;;13.70;99.90;;;;;;5054992;28;19908;-75
2022/06/20 00:19:20;;;;;;;;;;;13.70;99.90;;;;;;5054803;28;19919;-74
2022/06/20 00:21:46;;;;;;;;;;;13.70;99.90;;;;;;5054643;28;19912;-75
2022/06/20 00:24:13;;;;;;;;;;;13.70;99.90;;;;;;5055043;28;19909;-75
2022/06/20 00:26:40;;;;;;;;;;;13.70;99.90;;;;;;5042899;28;19914;-75
2022/06/20 00:29:08;;;;;;;;;;;13.70;99.90;;;;;;5025533;28;19963;-74
2022/06/20 00:31:35;;;;;;;;;;;13.80;99.90;;;;;;5034135;28;19916;-76
2022/06/20 00:34:02;;;;;;;;;;;13.80;99.90;;;;;;5032879;28;19913;-74
2022/06/20 00:36:28;;;;;;;;;;;13.90;99.90;;;;;;5034447;28;19955;-74
2022/06/20 00:38:56;;;;;;;;;;;14.00;99.90;;;;;;5054796;28;20402;-75
2022/06/20 00:41:27;;;;;;;;;;;14.00;99.90;;;;;;5054937;28;20007;-74
2022/06/20 00:43:54;;;;;;;;;;;14.10;99.90;;;;;;5054785;28;19955;-75
2022/06/20 00:46:27;;;;;;;;;;;14.10;99.90;;;;;;5054667;28;19909;-74
2022/06/20 00:48:57;;;;;;;;;;;14.20;99.90;;;;;;5054424;28;19948;-75
2022/06/20 00:51:29;;;;;;;;;;;14.20;99.90;;;;;;5054223;28;19919;-75
2022/06/20 00:54:03;;;;;;;;;;;14.30;99.90;;;;;;5053986;28;19921;-76
2022/06/20 00:56:34;;;;;;;;;;;14.40;99.90;;;;;;5054289;28;19916;-75
2022/06/20 00:59:05;;;;;;;;;;;14.40;99.90;;;;;;5054136;28;20330;-75
2022/06/20 01:01:34;;;;;;;;;;;14.40;99.90;;;;;;5054029;28;19909;-75
2022/06/20 01:04:04;;;;;;;;;;;14.40;99.90;;;;;;5053952;28;20352;-75
2022/06/20 01:06:33;;;;;;;;;;;14.50;99.90;;;;;;5054249;28;19909;-75
2022/06/20 01:09:05;;;;;;;;;;;14.70;99.90;;;;;;5054050;28;19909;-75
2022/06/20 01:11:43;;;;;;;;;;;14.90;99.90;;;;;;5054004;28;19915;-75
2022/06/20 01:14:22;;;;;;;;;;;15.00;99.90;;;;;;5053981;28;20359;-74
2022/06/20 01:16:50;;;;;;;;;;;15.20;99.90;;;;;;5053960;28;19909;-75
2022/06/20 01:19:37;;;;;;;;;;;15.40;99.90;;;;;;5053579;28;19909;-76
2022/06/20 01:22:09;;;;;;;;;;;15.40;99.90;;;;;;5052542;28;19909;-76
2022/06/20 01:24:43;;;;;;;;;;;15.50;99.90;;;;;;5053109;28;20288;-76
2022/06/20 01:27:28;;;;;;;;;;;15.50;99.90;;;;;;5053744;28;19915;-76
2022/06/20 01:29:55;;;;;;;;;;;15.60;99.90;;;;;;5053599;28;19923;-75
2022/06/20 01:32:22;;;;;;;;;;;15.60;99.90;;;;;;5053538;28;19909;-76
2022/06/20 01:34:49;;;;;;;;;;;15.60;99.90;;;;;;5053240;28;19917;-76
2022/06/20 01:37:28;;;;;;;;;;;15.50;99.90;;;;;;5053559;28;19995;-76
2022/06/20 01:40:01;;;;;;;;;;;15.50;99.90;;;;;;5053364;28;19916;-76
2022/06/20 01:42:29;;;;;;;;;;;15.50;99.90;;;;;;5053462;28;19916;-76
2022/06/20 01:45:57;;;;;;;;;;;15.40;99.90;;;;;;5053363;28;19962;-75
2022/06/20 01:47:54;;;;;;;;;;;15.40;99.90;;;;;;5053028;28;19916;-76
2022/06/20 01:50:21;;;;;;;;;;;15.30;99.90;;;;;;5053322;28;19956;-76
2022/06/20 01:52:47;;;;;;;;;;;15.40;99.90;;;;;;5053109;28;19921;-76
2022/06/20 01:55:16;;;;;;;;;;;15.30;99.90;;;;;;5036713;28;19928;-77
2022/06/20 01:57:49;;;;;;;;;;;15.30;99.90;;;;;;5019674;28;20469;-77
2022/06/20 02:00:20;;;;;;;;;;;15.30;99.90;;;;;;5012888;28;19917;-77
2022/06/20 02:02:59;;;;;;;;;;;15.20;99.90;;;;;;5028009;28;19910;-76
2022/06/20 02:05:29;;;;;;;;;;;15.10;99.90;;;;;;5012862;28;19996;-75
2022/06/20 02:07:58;;;;;;;;;;;15.10;99.90;;;;;;5012963;28;19909;-75
2022/06/20 02:10:44;;;;;;;;;;;15.10;99.90;;;;;;5032469;28;19931;-74
2022/06/20 02:13:13;;;;;;;;;;;15.10;99.90;;;;;;5033090;28;20348;-75
2022/06/20 02:15:40;;;;;;;;;;;15.10;99.90;;;;;;5032899;28;19913;-75
2022/06/20 02:18:08;;;;;;;;;;;14.90;99.90;;;;;;5033103;28;20363;-75
2022/06/20 02:20:38;;;;;;;;;;;14.80;99.90;;;;;;5033152;28;19944;-75
2022/06/20 02:23:06;;;;;;;;;;;14.70;99.90;;;;;;5033154;28;20003;-76
2022/06/20 02:25:34;;;;;;;;;;;14.60;99.90;;;;;;5033176;28;19913;-75
2022/06/20 02:28:09;;;;;;;;;;;14.50;99.90;;;;;;5032924;28;19909;-75
2022/06/20 02:30:37;;;;;;;;;;;14.40;99.90;;;;;;5033040;28;20460;-75
2022/06/20 02:33:25;;;;;;;;;;;14.30;99.90;;;;;;5032669;28;19909;-75
2022/06/20 02:35:56;;;;;;;;;;;14.20;99.90;;;;;;5034400;28;19960;-75
2022/06/20 02:38:23;;;;;;;;;;;14.20;99.90;;;;;;5036925;28;19909;-75
2022/06/20 02:40:51;;;;;;;;;;;14.20;99.90;;;;;;5037014;28;19916;-75
2022/06/20 02:43:24;;;;;;;;;;;14.20;99.90;;;;;;5036830;28;19995;-75
2022/06/20 02:45:53;;;;;;;;;;;14.20;99.90;;;;;;5036516;28;20372;-75
2022/06/20 02:48:20;;;;;;;;;;;14.30;99.90;;;;;;5036572;28;19909;-76
2022/06/20 02:51:06;;;;;;;;;;;14.20;99.90;;;;;;5036790;28;20371;-75
2022/06/20 02:53:38;;;;;;;;;;;14.20;99.90;;;;;;5048786;28;19928;-75
2022/06/20 02:56:07;;;;;;;;;;;14.20;99.90;;;;;;5056703;28;19920;-76
2022/06/20 02:58:35;;;;;;;;;;;14.10;99.90;;;;;;5056457;28;19909;-77
2022/06/20 03:01:17;;;;;;;;;;;14.30;99.90;;;;;;5056505;28;20351;-76
2022/06/20 03:03:46;;;;;;;;;;;14.30;99.90;;;;;;5056055;28;19970;-76
2022/06/20 03:06:18;;;;;;;;;;;14.30;99.90;;;;;;5056445;28;20368;-76
2022/06/20 03:08:44;;;;;;;;;;;14.40;99.90;;;;;;5056367;28;19916;-75
2022/06/20 03:11:11;;;;;;;;;;;14.50;99.90;;;;;;5056202;28;19908;-75
2022/06/20 03:13:39;;;;;;;;;;;14.50;99.90;;;;;;5055985;28;19917;-75
2022/06/20 03:16:07;;;;;;;;;;;14.50;99.90;;;;;;5056007;28;20000;-75
2022/06/20 03:18:37;;;;;;;;;;;14.50;99.90;;;;;;5056177;28;19916;-75
2022/06/20 03:21:05;;;;;;;;;;;14.50;99.90;;;;;;5038260;28;19912;-75
2022/06/20 03:23:33;;;;;;;;;;;14.50;99.90;;;;;;5055744;28;19962;-75
2022/06/20 03:26:01;;;;;;;;;;;14.50;99.90;;;;;;5055903;28;20248;-75
2022/06/20 03:28:30;;;;;;;;;;;14.50;99.90;;;;;;5055677;28;20383;-75
2022/06/20 03:30:57;;;;;;;;;;;14.60;99.90;;;;;;5055877;28;19956;-75
2022/06/20 03:33:24;;;;;;;;;;;14.60;99.90;;;;;;5055661;28;20023;-75
2022/06/20 03:35:54;;;;;;;;;;;14.60;99.90;;;;;;5055382;28;19916;-75
2022/06/20 03:38:22;;;;;;;;;;;14.70;99.90;;;;;;5055699;28;19909;-75
2022/06/20 03:40:49;;;;;;;;;;;14.70;99.90;;;;;;5055503;28;19909;-74
2022/06/20 03:43:18;;;;;;;;;;;14.70;99.90;;;;;;5055611;28;19932;-74
2022/06/20 03:45:48;;;;;;;;;;;14.70;99.90;;;;;;5055349;28;20356;-75
2022/06/20 03:48:17;;;;;;;;;;;14.70;99.90;;;;;;5054536;28;19909;-74
2022/06/20 03:50:47;;;;;;;;;;;14.60;99.90;;;;;;5055481;28;19909;-74
2022/06/20 03:53:25;;;;;;;;;;;14.60;99.90;;;;;;5070542;28;19921;-74
2022/06/20 03:55:51;;;;;;;;;;;14.60;99.90;;;;;;5070653;28;19917;-74
2022/06/20 03:58:23;;;;;;;;;;;14.60;99.90;;;;;;5070751;28;19909;-74
2022/06/20 04:01:10;;;;;;;;;;;14.70;99.90;;;;;;5055445;28;20256;-74
2022/06/20 04:03:41;;;;;;;;;;;14.80;99.90;;;;;;5054924;28;19941;-74
2022/06/20 04:06:10;;;;;;;;;;;14.90;99.90;;;;;;5055166;28;19999;-75
2022/06/20 04:11:42;;;;;;;;;;;14.80;99.90;;;;;;5055023;28;19962;-74
2022/06/20 04:14:14;;;;;;;;;;;14.80;99.90;;;;;;5055006;28;19917;-75
2022/06/20 04:16:47;;;;;;;;;;;14.80;99.90;;;;;;5035934;28;20099;-74
2022/06/20 04:19:17;;;;;;;;;;;14.80;99.90;;;;;;5027360;28;19956;-74
2022/06/20 04:21:43;;;;;;;;;;;14.80;99.90;;;;;;5054689;28;19915;-75
2022/06/20 04:24:12;;;;;;;;;;;14.80;99.90;;;;;;5054862;28;19908;-74
2022/06/20 04:26:47;;;;;;;;;;;14.80;99.90;;;;;;5054954;28;19913;-75
2022/06/20 04:29:14;;;;;;;;;;;14.80;99.90;;;;;;5054747;28;19995;-75
2022/06/20 04:31:41;;;;;;;;;;;14.70;99.90;;;;;;5054532;28;19909;-75
2022/06/20 04:34:28;;;;;;;;;;;14.70;99.90;;;;;;5036723;28;19917;-75
2022/06/20 04:37:17;;;;;;;;;;;14.70;99.90;;;;;;5054635;28;19912;-76
2022/06/20 04:39:53;;;;;;;;;;;14.60;99.90;;;;;;5054355;28;19913;-75
2022/06/20 04:42:24;;;;;;;;;;;14.40;99.90;;;;;;5054559;28;20352;-75
2022/06/20 04:44:54;;;;;;;;;;;14.30;99.90;;;;;;5054458;28;19909;-75
2022/06/20 04:47:27;;;;;;;;;;;14.00;99.90;;;;;;5054153;28;19909;-75
2022/06/20 04:49:54;;;;;;;;;;;14.00;99.90;;;;;;5054198;28;19909;-75
2022/06/20 04:52:22;;;;;;;;;;;13.90;99.90;;;;;;5054047;28;19909;-76
2022/06/20 04:54:49;;;;;;;;;;;13.90;99.90;;;;;;5054182;28;19916;-75
2022/06/20 04:57:16;;;;;;;;;;;13.90;99.90;;;;;;5054142;28;19909;-75
2022/06/20 04:59:43;;;;;;;;;;;14.10;99.90;;;;;;5052979;28;19909;-76
2022/06/20 05:02:13;;;;;;;;;;;14.10;99.90;;;;;;5053939;28;19909;-75
2022/06/20 05:04:42;;;;;;;;;;;14.10;99.90;;;;;;5053946;28;19952;-75
2022/06/20 05:07:14;;;;;;;;;;;14.00;99.90;;;;;;5052723;28;19908;-75
2022/06/20 05:09:47;;;;;;;;;;;14.00;99.90;;;;;;5053839;28;20344;-75
2022/06/20 05:12:20;;;;;;;;;;;13.90;99.90;;;;;;5053765;28;19939;-76
2022/06/20 05:14:46;;;;;;;;;;;14.00;99.90;;;;;;5053837;28;20015;-75
2022/06/20 05:17:22;;;;;;;;;;;14.00;99.90;;;;;;5053653;28;19919;-76
2022/06/20 05:19:51;;;;;;;;;;;14.10;99.90;;;;;;5053552;28;19981;-75
2022/06/20 05:22:24;;;;;;;;;;;14.00;99.90;;;;;;5053679;28;20363;-75
2022/06/20 05:24:52;;;;;;;;;;;14.00;99.90;;;;;;5053887;28;19948;-75
2022/06/20 05:27:25;;;;;;;;;;;13.90;99.90;;;;;;5053570;28;20407;-74
2022/06/20 05:29:53;;;;;;;;;;;14.00;99.90;;;;;;5053459;28;19909;-75
2022/06/20 05:32:24;;;;;;;;;;;13.90;99.90;;;;;;5053340;28;19908;-75
2022/06/20 05:34:58;;;;;;;;;;;13.90;99.90;;;;;;5053561;28;19916;-75
2022/06/20 05:37:40;;;;;;;;;;;13.90;99.90;;;;;;5053629;28;19913;-75
2022/06/20 05:40:13;;;;;;;;;;;13.90;99.90;;;;;;5053365;28;19909;-74
2022/06/20 05:42:39;;;;;;;;;;;13.90;99.90;;;;;;5069005;28;20244;-75
2022/06/20 05:45:14;;;;;;;;;;;13.80;99.90;;;;;;5053473;28;19913;-75
2022/06/20 05:47:41;;;;;;;;;;;13.90;99.90;;;;;;5052957;28;19909;-75
2022/06/20 05:50:23;;;;;;;;;;;13.90;99.90;;;;;;5053455;28;19915;-76
2022/06/20 05:52:50;;;;;;;;;;;14.00;99.90;;;;;;5053507;28;19931;-76
2022/06/20 05:55:21;;;;;;;;;;;14.10;99.90;;;;;;5053259;28;19951;-74
2022/06/20 05:57:49;;;;;;;;;;;14.20;99.90;;;;;;5053245;28;19909;-76
2022/06/20 06:00:16;;;;;;;;;;;14.10;99.90;;;;;;5053679;28;19913;-77
2022/06/20 06:02:45;;;;;;;;;;;14.20;99.90;;;;;;5053293;28;20382;-76
2022/06/20 06:05:17;;;;;;;;;;;14.20;99.90;;;;;;5053316;28;19954;-76
2022/06/20 06:07:44;;;;;;;;;;;14.20;99.90;;;;;;5053295;28;19954;-75
2022/06/20 06:10:29;;;;;;;;;;;14.20;99.90;;;;;;5053989;28;19909;-74
2022/06/20 06:13:01;;;;;;;;;;;14.30;99.90;;;;;;5057692;28;19962;-75
2022/06/20 06:15:38;;;;;;;;;;;14.30;99.90;;;;;;5057693;28;19917;-75
2022/06/20 06:18:08;;;;;;;;;;;14.30;99.90;;;;;;5057425;28;19963;-75
2022/06/20 06:20:35;;;;;;;;;;;14.30;99.90;;;;;;5057366;28;19909;-75
2022/06/20 06:23:07;;;;;;;;;;;14.20;99.90;;;;;;5057224;28;19909;-75
2022/06/20 06:25:36;;;;;;;;;;;14.20;99.90;;;;;;5057134;28;19978;-75
2022/06/20 06:28:03;;;;;;;;;;;14.10;99.90;;;;;;5057129;28;19909;-75
2022/06/20 06:30:31;;;;;;;;;;;14.10;99.90;;;;;;5056980;28;19916;-75
2022/06/20 06:33:01;;;;;;;;;;;14.00;99.90;;;;;;5057064;28;19970;-75
2022/06/20 06:35:40;;;;;;;;;;;14.10;99.90;;;;;;5072161;28;20314;-75
2022/06/20 06:38:11;;;;;;;;;;;14.10;99.90;;;;;;5056874;28;19971;-75
2022/06/20 06:40:46;;;;;;;;;;;14.30;99.90;;;;;;5056839;28;19908;-74
2022/06/20 06:43:25;;;;;;;;;;;14.30;99.90;;;;;;5056813;28;19909;-76
2022/06/20 06:45:53;;;;;;;;;;;14.40;99.90;;;;;;5056607;28;19908;-77
2022/06/20 06:48:23;;;;;;;;;;;14.40;99.90;;;;;;5056644;28;20244;-76
2022/06/20 06:50:58;;;;;;;;;;;14.30;99.90;;;;;;5055632;28;19917;-77
2022/06/20 06:53:31;;;;;;;;;;;14.30;99.90;;;;;;5054376;28;20051;-77
2022/06/20 06:56:01;;;;;;;;;;;14.30;99.90;;;;;;5053158;28;20478;-76
2022/06/20 06:58:34;;;;;;;;;;;14.20;99.90;;;;;;5054665;28;19996;-76
2022/06/20 07:01:06;;;;;;;;;;;14.20;99.90;;;;;;5054321;28;19908;-76
2022/06/20 07:03:45;;;;;;;;;;;14.10;99.90;;;;;;5054273;28;19908;-76
2022/06/20 07:06:20;;;;;;;;;;;14.10;99.90;;;;;;5053957;28;20244;-76
2022/06/20 07:08:49;;;;;;;;;;;14.20;99.90;;;;;;5054443;28;19920;-76
2022/06/20 07:11:21;;;;;;;;;;;14.20;99.90;;;;;;5054146;28;19913;-76
2022/06/20 07:14:07;;;;;;;;;;;14.20;99.90;;;;;;5054016;28;20267;-75
2022/06/20 07:16:40;;;;;;;;;;;14.10;99.90;;;;;;5053301;28;20356;-75
2022/06/20 07:19:08;;;;;;;;;;;14.10;99.90;;;;;;5053900;28;19952;-76
2022/06/20 07:21:37;;;;;;;;;;;14.20;99.90;;;;;;5053230;28;19908;-75
2022/06/20 07:24:08;;;;;;;;;;;14.20;99.90;;;;;;5053556;28;20413;-75
2022/06/20 07:26:41;;;;;;;;;;;14.20;99.90;;;;;;5054005;28;19912;-76
2022/06/20 07:29:12;;;;;;;;;;;14.10;99.90;;;;;;5053951;28;19912;-75
2022/06/20 07:31:44;;;;;;;;;;;14.10;99.90;;;;;;5053225;28;19908;-76
2022/06/20 07:34:19;;;;;;;;;;;14.10;99.90;;;;;;5053728;28;19943;-75
2022/06/20 07:36:52;;;;;;;;;;;14.00;99.90;;;;;;5053676;28;19970;-76
2022/06/20 07:39:22;;;;;;;;;;;13.90;99.90;;;;;;5053454;28;19996;-75
2022/06/20 07:41:51;;;;;;;;;;;13.90;99.90;;;;;;5053460;28;19909;-75
2022/06/20 07:44:27;;;;;;;;;;;13.80;99.90;;;;;;5053183;28;20391;-75
2022/06/20 07:46:53;;;;;;;;;;;13.80;99.90;;;;;;5053266;28;19919;-76
2022/06/20 07:49:46;;;;;;;;;;;13.70;99.90;;;;;;5069011;28;19913;-75
2022/06/20 07:52:16;;;;;;;;;;;13.70;99.90;;;;;;5052995;28;20465;-76
2022/06/20 07:54:45;;;;;;;;;;;13.60;99.90;;;;;;5053448;28;19917;-75
2022/06/20 07:57:14;;;;;;;;;;;13.60;99.90;;;;;;5052937;28;19913;-75
2022/06/20 07:59:53;;;;;;;;;;;13.70;99.90;;;;;;5053034;28;20355;-76
2022/06/20 08:02:20;;;;;;;;;;;13.60;99.90;;;;;;5053178;28;19913;-75
2022/06/20 08:04:50;;;;;;;;;;;13.60;99.90;;;;;;5053262;28;19920;-75
2022/06/20 08:07:26;;;;;;;;;;;13.60;99.90;;;;;;5053111;28;19913;-75
2022/06/20 08:10:01;;;;;;;;;;;13.60;99.90;;;;;;5052333;28;19999;-75
2022/06/20 08:12:36;;;;;;;;;;;13.60;99.90;;;;;;5052643;28;19908;-75
2022/06/20 08:15:03;;;;;;;;;;;13.50;99.90;;;;;;5053223;28;19928;-75
2022/06/20 08:17:31;;;;;;;;;;;13.60;99.90;;;;;;5052636;28;19909;-75
2022/06/20 08:19:58;;;;;;;;;;;13.50;99.90;;;;;;5052932;28;19912;-75
2022/06/20 08:22:47;;;;;;;;;;;13.50;99.90;;;;;;5052429;28;19908;-76
2022/06/20 08:25:25;;;;;;;;;;;13.60;99.90;;;;;;5052076;28;19936;-75
2022/06/20 08:28:07;;;;;;;;;;;13.50;99.90;;;;;;5030719;28;20008;-75
2022/06/20 08:30:37;;;;;;;;;;;13.50;99.90;;;;;;5012808;28;20288;-76
2022/06/20 08:33:18;;;;;;;;;;;13.50;99.90;;;;;;5012609;28;20007;-76
2022/06/20 08:35:53;;;;;;;;;;;13.50;99.90;;;;;;5012672;28;19921;-75
2022/06/20 08:38:20;;;;;;;;;;;13.60;99.90;;;;;;5012703;28;19909;-75
2022/06/20 08:41:05;;;;;;;;;;;13.50;99.90;;;;;;5012464;28;19991;-76
2022/06/20 08:43:50;;;;;;;;;;;13.60;99.90;;;;;;5012806;28;19992;-76
2022/06/20 08:46:28;;;;;;;;;;;13.60;99.90;;;;;;5012673;28;19952;-75
2022/06/20 08:49:04;;;;;;;;;;;13.60;99.90;;;;;;5012807;28;20558;-76
2022/06/20 08:52:06;;;;;;;;;;;13.60;99.90;;;;;;5012267;28;19952;-76
2022/06/20 08:54:51;;;;;;;;;;;13.60;99.90;;;;;;5043505;28;20472;-76
2022/06/20 08:57:20;;;;;;;;;;;13.60;99.90;;;;;;5012423;28;20368;-76
2022/06/20 08:59:53;;;;;;;;;;;13.70;99.90;;;;;;5012106;28;20282;-76
2022/06/20 09:02:35;;;;;;;;;;;13.70;99.90;;;;;;5012680;28;19910;-76
2022/06/20 09:05:02;;;;;;;;;;;13.70;99.90;;;;;;5012607;28;19910;-76
2022/06/20 09:07:41;;;;;;;;;;;13.60;99.90;;;;;;5013927;28;20284;-76
2022/06/20 09:10:20;;;;;;;;;;;13.70;99.90;;;;;;5015751;28;19913;-76
2022/06/20 09:13:02;;;;;;;;;;;13.60;99.90;;;;;;5014351;28;19913;-76
2022/06/20 09:15:38;;;;;;;;;;;13.60;99.90;;;;;;5014024;28;19917;-76
2022/06/20 09:18:14;;;;;;;;;;;13.50;99.90;;;;;;5014292;28;20266;-76
2022/06/20 09:20:43;;;;;;;;;;;13.50;99.90;;;;;;5013492;28;20328;-75
2022/06/20 09:23:16;;;;;;;;;;;13.50;99.90;;;;;;5014137;28;19949;-75
2022/06/20 09:25:56;;;;;;;;;;;13.50;99.90;;;;;;5013666;28;19963;-75
2022/06/20 09:28:29;;;;;;;;;;;13.40;99.90;;;;;;5014180;28;20297;-76
2022/06/20 09:30:56;;;;;;;;;;;13.40;99.90;;;;;;5014024;28;19910;-77
2022/06/20 09:33:37;;;;;;;;;;;13.40;99.90;;;;;;5014004;28;19909;-76
2022/06/20 09:36:20;;;;;;;;;;;13.30;99.90;;;;;;5014140;28;19956;-75
2022/06/20 09:38:52;;;;;;;;;;;13.30;99.90;;;;;;5014061;28;20353;-76
2022/06/20 09:41:28;;;;;;;;;;;13.30;99.90;;;;;;5014001;28;19909;-77
2022/06/20 09:44:17;;;;;;;;;;;13.20;99.90;;;;;;5013779;28;19910;-75
2022/06/20 09:47:02;;;;;;;;;;;13.20;99.90;;;;;;5035761;28;19909;-76
2022/06/20 09:49:32;;;;;;;;;;;13.20;99.90;;;;;;5013912;28;19909;-76
2022/06/20 09:52:10;;;;;;;;;;;13.10;99.90;;;;;;5045412;28;20439;-76
2022/06/20 09:54:43;;;;;;;;;;;13.10;99.90;;;;;;5013861;28;20289;-77
2022/06/20 09:57:19;;;;;;;;;;;13.10;99.90;;;;;;5013780;28;20275;-77
2022/06/20 09:59:49;;;;;;;;;;;13.10;99.90;;;;;;5013569;28;20011;-77
2022/06/20 10:02:33;;;;;;;;;;;13.00;99.90;;;;;;5013474;28;19929;-77
2022/06/20 10:05:20;;;;;;;;;;;13.00;99.90;;;;;;5013618;28;20327;-77
2022/06/20 10:07:49;;;;;;;;;;;13.00;99.90;;;;;;5009423;28;19913;-77
2022/06/20 10:10:35;;;;;;;;;;;13.00;99.90;;;;;;5013794;28;19917;-77
2022/06/20 10:13:02;;;;;;;;;;;13.00;99.90;;;;;;5013719;28;20021;-76
2022/06/20 10:15:32;;;;;;;;;;;13.00;99.90;;;;;;5013293;28;19921;-77
2022/06/20 10:18:02;;;;;;;;;;;13.00;99.90;;;;;;5013617;28;19909;-76
2022/06/20 10:20:36;;;;;;;;;;;13.00;99.90;;;;;;5013706;28;19914;-76
2022/06/20 10:23:03;;;;;;;;;;;13.00;99.90;;;;;;5045416;28;19917;-77
2022/06/20 10:25:53;;;;;;;;;;;13.00;99.90;;;;;;5013373;28;19949;-77
2022/06/20 10:28:25;;;;;;;;;;;13.00;99.90;;;;;;5012363;28;20345;-76
2022/06/20 10:30:57;;;;;;;;;;;12.90;99.90;;;;;;5011353;28;20107;-76
2022/06/20 10:33:32;;;;;;;;;;;13.00;99.90;;;;;;5011319;28;19909;-77
2022/06/20 10:36:21;;;;;;;;;;;12.90;99.90;;;;;;5029744;28;20383;-77
2022/06/20 10:39:00;;;;;;;;;;;12.90;99.90;;;;;;5030566;28;20360;-77
2022/06/20 10:41:45;;;;;;;;;;;12.80;99.90;;;;;;5012380;28;19909;-77
2022/06/20 10:44:20;;;;;;;;;;;12.70;99.90;;;;;;5010941;28;19917;-77
2022/06/20 10:46:53;;;;;;;;;;;12.70;99.90;;;;;;5010776;28;19910;-77
2022/06/20 10:49:23;;;;;;;;;;;12.60;99.90;;;;;;5010541;28;20395;-77
2022/06/20 10:52:08;;;;;;;;;;;12.60;99.90;;;;;;5010790;28;19959;-76
2022/06/20 10:54:52;;;;;;;;;;;12.60;99.90;;;;;;5010769;28;19925;-76
2022/06/20 10:57:45;;;;;;;;;;;12.70;99.90;;;;;;5013108;28;19995;-76
2022/06/20 11:00:14;;;;;;;;;;;12.70;99.90;;;;;;4998134;28;19910;-76
2022/06/20 11:03:11;;;;;;;;;;;12.60;99.90;;;;;;5014674;28;19913;-76
2022/06/20 11:05:47;;;;;;;;;;;12.70;99.90;;;;;;5013820;28;19956;-76
2022/06/20 11:08:13;;;;;;;;;;;12.70;99.90;;;;;;5014767;28;20399;-76
2022/06/20 11:11:00;;;;;;;;;;;12.70;99.90;;;;;;5014661;28;20004;-76
2022/06/20 11:13:30;;;;;;;;;;;12.70;99.90;;;;;;5014645;28;19931;-76
2022/06/20 11:15:56;;;;;;;;;;;12.70;99.90;;;;;;5014326;28;19921;-76
2022/06/20 11:18:31;;;;;;;;;;;12.70;99.90;;;;;;5014537;28;19913;-76
2022/06/20 11:21:06;;;;;;;;;;;12.70;99.90;;;;;;5014040;28;19910;-76
2022/06/20 11:23:35;;;;;;;;;;;12.60;99.90;;;;;;5014320;28;19910;-76
2022/06/20 11:26:25;;;;;;;;;;;12.60;99.90;;;;;;5014531;28;20360;-76
2022/06/20 11:29:14;;;;;;;;;;;12.70;99.90;;;;;;5011215;28;19910;-76
2022/06/20 11:31:50;;;;;;;;;;;12.70;99.90;;;;;;5014439;28;19920;-76
2022/06/20 11:34:27;;;;;;;;;;;12.70;99.90;;;;;;5013973;28;20398;-76
2022/06/20 11:37:12;;;;;;;;;;;12.70;99.90;;;;;;5014379;28;19909;-76
2022/06/20 11:39:38;;;;;;;;;;;12.70;99.90;;;;;;5014069;28;19940;-76
2022/06/20 11:42:31;;;;;;;;;;;12.70;99.90;;;;;;5014288;28;20384;-75
2022/06/20 11:45:01;;;;;;;;;;;12.70;99.90;;;;;;5013651;28;19953;-76
2022/06/20 11:47:33;;;;;;;;;;;12.70;99.90;;;;;;5014336;28;19909;-76
2022/06/20 11:50:19;;;;;;;;;;;12.60;99.90;;;;;;5013889;28;19914;-76
2022/06/20 11:52:48;;;;;;;;;;;12.60;99.90;;;;;;5014618;28;20377;-76
2022/06/20 11:55:41;;;;;;;;;;;12.60;99.90;;;;;;5015875;28;19917;-76
2022/06/20 11:58:17;;;;;;;;;;;12.60;99.90;;;;;;5007376;28;19910;-76
2022/06/20 12:00:53;;;;;;;;;;;12.60;99.90;;;;;;5016055;28;19917;-76
2022/06/20 12:03:42;;;;;;;;;;;12.60;99.90;;;;;;5016271;28;19915;-76
2022/06/20 12:06:30;;;;;;;;;;;12.60;99.90;;;;;;5012923;28;19917;-75
2022/06/20 12:09:02;;;;;;;;;;;12.60;99.90;;;;;;5015896;28;19949;-76
2022/06/20 12:11:47;;;;;;;;;;;12.70;99.90;;;;;;5016579;28;19909;-76
2022/06/20 12:14:17;;;;;;;;;;;12.60;99.90;;;;;;5016819;28;20053;-76
2022/06/20 12:16:56;;;;;;;;;;;12.60;99.90;;;;;;5015775;28;19917;-76
2022/06/20 12:25:24;;;;;;;;;;;12.50;99.90;;;;;;5015638;28;19972;-77
2022/06/20 12:27:52;;;;;;;;;;;12.60;99.90;;;;;;5012246;28;20004;-76
2022/06/20 12:30:19;;;;;;;;;;;12.60;99.90;;;;;;5014978;28;20265;-77
2022/06/20 12:32:48;;;;;;;;;;;12.60;99.90;;;;;;5015137;28;19910;-76
2022/06/20 12:35:20;;;;;;;;;;;12.60;99.90;;;;;;5014866;28;20015;-76
2022/06/20 12:38:04;;;;;;;;;;;12.60;99.90;;;;;;5014839;28;19913;-76
2022/06/20 12:40:36;;;;;;;;;;;12.60;99.90;;;;;;5015059;28;19917;-76
2022/06/20 12:43:23;;;;;;;;;;;12.60;99.90;;;;;;5014988;28;19910;-76
2022/06/20 12:45:52;;;;;;;;;;;12.60;99.90;;;;;;5015223;28;20869;-76
2022/06/20 12:48:46;;;;;;;;;;;12.60;99.90;;;;;;5014300;28;19956;-76
2022/06/20 12:51:33;;;;;;;;;;;12.60;99.90;;;;;;5014817;28;19910;-76
2022/06/20 12:54:18;;;;;;;;;;;12.50;99.90;;;;;;5013871;28;20398;-77
2022/06/20 12:57:05;;;;;;;;;;;12.60;99.90;;;;;;5014922;28;19910;-76
2022/06/20 12:59:37;;;;;;;;;;;12.60;99.90;;;;;;5003172;28;20356;-76
2022/06/20 13:02:18;;;;;;;;;;;12.50;99.90;;;;;;5014672;28;19913;-76
2022/06/20 13:04:48;;;;;;;;;;;12.50;99.90;;;;;;5014613;28;19909;-77
2022/06/20 13:07:20;;;;;;;;;;;12.50;99.90;;;;;;5014536;28;19913;-76
2022/06/20 13:09:53;;;;;;;;;;;12.50;99.90;;;;;;5014386;28;20346;-76
2022/06/20 13:12:20;;;;;;;;;;;12.50;99.90;;;;;;5014547;28;19917;-76
2022/06/20 13:15:05;;;;;;;;;;;12.40;99.90;;;;;;5014263;28;20024;-76
2022/06/20 13:17:51;;;;;;;;;;;12.40;99.90;;;;;;5014097;28;19910;-76
2022/06/20 13:20:18;;;;;;;;;;;12.40;99.90;;;;;;5013040;28;19956;-76
2022/06/20 13:22:49;;;;;;;;;;;12.40;99.90;;;;;;5014283;28;20475;-77
2022/06/20 13:25:28;;;;;;;;;;;12.40;99.90;;;;;;5014381;28;19936;-76
2022/06/20 13:28:04;;;;;;;;;;;12.40;99.90;;;;;;5014092;28;19909;-76
2022/06/20 13:30:48;;;;;;;;;;;12.40;99.90;;;;;;5014022;28;19910;-76
2022/06/20 13:33:18;;;;;;;;;;;12.40;99.90;;;;;;5014196;28;19909;-76
2022/06/20 13:35:48;;;;;;;;;;;12.40;99.90;;;;;;5013807;28;19925;-76
2022/06/20 13:38:17;;;;;;;;;;;12.30;99.90;;;;;;5045767;28;19910;-76
2022/06/20 13:40:45;;;;;;;;;;;12.30;99.90;;;;;;5013929;28;19974;-76
2022/06/20 13:43:33;;;;;;;;;;;12.30;99.90;;;;;;5014018;28;20016;-76
2022/06/20 13:46:09;;;;;;;;;;;12.30;99.90;;;;;;5013776;28;20000;-73
2022/06/20 13:49:01;;;;;;;;;;;12.20;99.90;;;;;;5013904;28;19909;-76
2022/06/20 13:51:30;;;;;;;;;;;12.20;99.90;;;;;;5012620;28;20372;-76
2022/06/20 13:54:06;;;;;;;;;;;12.20;99.90;;;;;;5013599;28;19925;-76
2022/06/20 13:56:39;;;;;;;;;;;12.30;99.90;;;;;;5013890;28;20274;-76
2022/06/20 13:59:25;;;;;;;;;;;12.30;99.90;;;;;;5013755;28;19932;-76
2022/06/20 14:02:06;;;;;;;;;;;12.30;99.90;;;;;;5013305;28;19931;-76
2022/06/20 14:04:34;;;;;;;;;;;12.30;99.90;;;;;;5013763;28;19909;-76
2022/06/20 14:07:05;;;;;;;;;;;12.30;99.90;;;;;;5013624;28;19910;-76
2022/06/20 14:09:38;;;;;;;;;;;12.30;99.90;;;;;;5013478;28;19972;-76
2022/06/20 14:12:18;;;;;;;;;;;12.40;99.90;;;;;;5013671;28;20280;-76
2022/06/20 14:14:47;;;;;;;;;;;12.40;99.90;;;;;;5013453;28;20364;-76
2022/06/20 14:17:19;;;;;;;;;;;12.40;99.90;;;;;;5013532;28;20012;-77
2022/06/20 14:19:51;;;;;;;;;;;12.50;99.90;;;;;;5013470;28;19910;-76
2022/06/20 14:22:31;;;;;;;;;;;12.50;99.90;;;;;;5013532;28;19909;-76
2022/06/20 14:24:58;;;;;;;;;;;12.60;99.90;;;;;;5013553;28;19932;-76
2022/06/20 14:27:29;;;;;;;;;;;12.60;99.90;;;;;;5013475;28;19932;-76
2022/06/20 14:29:56;;;;;;;;;;;12.60;99.90;;;;;;5013351;28;19909;-77
2022/06/20 14:32:25;;;;;;;;;;;12.60;99.90;;;;;;5015807;28;19932;-76
2022/06/20 14:37:58;;;;;;;;;;;12.50;99.90;;;;;;5017470;28;20338;-77
2022/06/20 14:40:32;;;;;;;;;;;12.50;99.90;;;;;;5017137;28;20021;-76
2022/06/20 14:43:02;;;;;;;;;;;12.50;99.90;;;;;;5017330;28;19922;-76
2022/06/20 14:45:33;;;;;;;;;;;12.50;99.90;;;;;;5017007;28;19910;-77
2022/06/20 14:48:22;;;;;;;;;;;12.50;99.90;;;;;;5017220;28;20373;-76
2022/06/20 14:50:53;;;;;;;;;;;12.60;99.90;;;;;;5017004;28;20353;-77
2022/06/20 14:53:42;;;;;;;;;;;12.50;99.90;;;;;;5016812;28;20008;-77
2022/06/20 14:56:19;;;;;;;;;;;12.60;99.90;;;;;;5006669;28;19917;-76
2022/06/20 14:59:04;;;;;;;;;;;12.60;99.90;;;;;;5016916;28;19955;-76
2022/06/20 15:01:43;;;;;;;;;;;12.60;99.90;;;;;;5016643;28;19910;-76
2022/06/20 15:04:29;;;;;;;;;;;12.50;99.90;;;;;;5016890;28;19917;-76
2022/06/20 15:07:14;;;;;;;;;;;12.40;99.90;;;;;;5016568;28;19917;-77